sensor_id;sensor_type;location;lat;lon;timestamp;P1;durP1;ratioP1;P2;durP2;ratioP2
21527;SDS011;10925;49.102;-0.370;2022-11-15T00:00:32;8.80;;;2.05;;
21527;SDS011;10925;49.102;-0.370;2022-11-15T00:02:57;10.50;;;2.00;;
21527;SDS011;10925;49.102;-0.370;2022-11-15T00:05:43;5.95;;;2.00;;
21527;SDS011;10925;49.102;-0.370;2022-11-15T00:08:29;9.45;;;1.67;;
21527;SDS011;10925;49.102;-0.370;2022-11-15T00:10:56;7.80;;;1.92;;
21527;SDS011;10925;49.102;-0.370;2022-11-15T00:13:21;11.23;;;2.30;;
21527;SDS011;10925;49.102;-0.370;2022-11-15T00:15:47;8.60;;;2.13;;
21527;SDS011;10925;49.102;-0.370;2022-11-15T00:18:32;10.25;;;2.22;;
21527;SDS011;10925;49.102;-0.370;2022-11-15T00:21:18;11.20;;;2.40;;
21527;SDS011;10925;49.102;-0.370;2022-11-15T00:24:04;15.90;;;2.80;;
21527;SDS011;10925;49.102;-0.370;2022-11-15T00:26:49;11.65;;;2.38;;
21527;SDS011;10925;49.102;-0.370;2022-11-15T00:29:16;8.32;;;2.10;;
21527;SDS011;10925;49.102;-0.370;2022-11-15T00:31:41;7.20;;;1.75;;
21527;SDS011;10925;49.102;-0.370;2022-11-15T00:34:26;10.93;;;1.75;;
21527;SDS011;10925;49.102;-0.370;2022-11-15T00:36:52;10.85;;;2.33;;
21527;SDS011;10925;49.102;-0.370;2022-11-15T00:39:18;5.57;;;1.80;;
21527;SDS011;10925;49.102;-0.370;2022-11-15T00:42:03;8.23;;;2.08;;
21527;SDS011;10925;49.102;-0.370;2022-11-15T00:44:29;11.68;;;2.13;;
21527;SDS011;10925;49.102;-0.370;2022-11-15T00:46:54;5.65;;;1.95;;
21527;SDS011;10925;49.102;-0.370;2022-11-15T00:49:20;12.63;;;1.95;;
21527;SDS011;10925;49.102;-0.370;2022-11-15T00:52:05;13.27;;;2.03;;
21527;SDS011;10925;49.102;-0.370;2022-11-15T00:54:50;8.77;;;1.95;;
21527;SDS011;10925;49.102;-0.370;2022-11-15T00:57:15;10.68;;;2.10;;
21527;SDS011;10925;49.102;-0.370;2022-11-15T01:00:01;11.23;;;1.73;;
21527;SDS011;10925;49.102;-0.370;2022-11-15T01:02:46;8.80;;;1.45;;
21527;SDS011;10925;49.102;-0.370;2022-11-15T01:05:31;7.63;;;1.55;;
21527;SDS011;10925;49.102;-0.370;2022-11-15T01:07:58;7.78;;;1.80;;
21527;SDS011;10925;49.102;-0.370;2022-11-15T01:10:43;8.27;;;1.52;;
21527;SDS011;10925;49.102;-0.370;2022-11-15T01:13:29;11.02;;;1.60;;
21527;SDS011;10925;49.102;-0.370;2022-11-15T01:15:55;4.63;;;1.40;;
21527;SDS011;10925;49.102;-0.370;2022-11-15T01:18:40;13.00;;;2.13;;
21527;SDS011;10925;49.102;-0.370;2022-11-15T01:21:26;8.43;;;1.55;;
21527;SDS011;10925;49.102;-0.370;2022-11-15T01:24:12;14.32;;;1.55;;
21527;SDS011;10925;49.102;-0.370;2022-11-15T01:26:58;7.63;;;1.38;;
21527;SDS011;10925;49.102;-0.370;2022-11-15T01:29:23;15.88;;;2.13;;
21527;SDS011;10925;49.102;-0.370;2022-11-15T01:31:48;13.13;;;1.65;;
21527;SDS011;10925;49.102;-0.370;2022-11-15T01:34:34;10.85;;;1.67;;
21527;SDS011;10925;49.102;-0.370;2022-11-15T01:36:59;7.43;;;1.67;;
21527;SDS011;10925;49.102;-0.370;2022-11-15T01:39:44;11.75;;;1.80;;
21527;SDS011;10925;49.102;-0.370;2022-11-15T01:42:29;10.10;;;1.25;;
21527;SDS011;10925;49.102;-0.370;2022-11-15T01:44:56;7.60;;;1.33;;
21527;SDS011;10925;49.102;-0.370;2022-11-15T01:47:28;6.40;;;1.10;;
21527;SDS011;10925;49.102;-0.370;2022-11-15T01:49:57;10.63;;;1.40;;
21527;SDS011;10925;49.102;-0.370;2022-11-15T01:52:24;10.73;;;1.38;;
21527;SDS011;10925;49.102;-0.370;2022-11-15T01:55:11;9.50;;;1.63;;
21527;SDS011;10925;49.102;-0.370;2022-11-15T01:57:39;9.10;;;1.38;;
21527;SDS011;10925;49.102;-0.370;2022-11-15T02:00:05;9.45;;;1.42;;
21527;SDS011;10925;49.102;-0.370;2022-11-15T02:02:51;5.78;;;1.58;;
21527;SDS011;10925;49.102;-0.370;2022-11-15T02:05:36;6.30;;;1.50;;
21527;SDS011;10925;49.102;-0.370;2022-11-15T02:08:03;10.65;;;1.50;;
21527;SDS011;10925;49.102;-0.370;2022-11-15T02:10:29;8.02;;;1.52;;
21527;SDS011;10925;49.102;-0.370;2022-11-15T02:13:15;8.18;;;1.63;;
21527;SDS011;10925;49.102;-0.370;2022-11-15T02:16:08;8.75;;;1.40;;
21527;SDS011;10925;49.102;-0.370;2022-11-15T02:18:41;10.82;;;1.92;;
21527;SDS011;10925;49.102;-0.370;2022-11-15T02:32:35;8.05;;;1.50;;
21527;SDS011;10925;49.102;-0.370;2022-11-15T02:42:55;10.20;;;1.77;;
21527;SDS011;10925;49.102;-0.370;2022-11-15T02:46:07;9.73;;;1.75;;
21527;SDS011;10925;49.102;-0.370;2022-11-15T02:48:54;10.10;;;1.70;;
21527;SDS011;10925;49.102;-0.370;2022-11-15T02:51:21;10.70;;;1.40;;
21527;SDS011;10925;49.102;-0.370;2022-11-15T02:54:06;9.88;;;1.95;;
21527;SDS011;10925;49.102;-0.370;2022-11-15T02:56:53;15.75;;;1.65;;
21527;SDS011;10925;49.102;-0.370;2022-11-15T03:00:02;12.65;;;1.95;;
21527;SDS011;10925;49.102;-0.370;2022-11-15T03:12:57;10.63;;;1.92;;
21527;SDS011;10925;49.102;-0.370;2022-11-15T03:15:29;10.75;;;2.10;;
21527;SDS011;10925;49.102;-0.370;2022-11-15T03:18:29;8.93;;;1.65;;
21527;SDS011;10925;49.102;-0.370;2022-11-15T03:21:17;14.68;;;1.75;;
21527;SDS011;10925;49.102;-0.370;2022-11-15T03:24:03;8.85;;;1.83;;
21527;SDS011;10925;49.102;-0.370;2022-11-15T03:26:31;11.57;;;1.42;;
21527;SDS011;10925;49.102;-0.370;2022-11-15T03:29:19;8.68;;;1.30;;
21527;SDS011;10925;49.102;-0.370;2022-11-15T03:40:03;10.60;;;1.45;;
21527;SDS011;10925;49.102;-0.370;2022-11-15T03:42:35;9.55;;;1.65;;
21527;SDS011;10925;49.102;-0.370;2022-11-15T03:45:13;8.18;;;1.42;;
21527;SDS011;10925;49.102;-0.370;2022-11-15T03:47:41;8.02;;;1.30;;
21527;SDS011;10925;49.102;-0.370;2022-11-15T03:50:08;14.00;;;1.90;;
21527;SDS011;10925;49.102;-0.370;2022-11-15T03:52:36;14.00;;;1.50;;
21527;SDS011;10925;49.102;-0.370;2022-11-15T03:55:22;6.55;;;1.10;;
21527;SDS011;10925;49.102;-0.370;2022-11-15T03:57:49;12.52;;;1.40;;
21527;SDS011;10925;49.102;-0.370;2022-11-15T04:00:15;14.25;;;1.52;;
21527;SDS011;10925;49.102;-0.370;2022-11-15T04:03:01;5.55;;;1.05;;
21527;SDS011;10925;49.102;-0.370;2022-11-15T04:05:27;10.32;;;1.33;;
21527;SDS011;10925;49.102;-0.370;2022-11-15T04:07:53;11.63;;;1.60;;
21527;SDS011;10925;49.102;-0.370;2022-11-15T04:10:38;13.93;;;1.45;;
21527;SDS011;10925;49.102;-0.370;2022-11-15T04:13:05;9.45;;;1.70;;
21527;SDS011;10925;49.102;-0.370;2022-11-15T04:15:30;6.72;;;1.58;;
21527;SDS011;10925;49.102;-0.370;2022-11-15T04:17:56;12.20;;;1.70;;
21527;SDS011;10925;49.102;-0.370;2022-11-15T04:20:42;11.68;;;1.48;;
21527;SDS011;10925;49.102;-0.370;2022-11-15T04:23:45;11.30;;;1.33;;
21527;SDS011;10925;49.102;-0.370;2022-11-15T04:26:30;8.30;;;1.45;;
21527;SDS011;10925;49.102;-0.370;2022-11-15T04:29:16;10.75;;;1.67;;
21527;SDS011;10925;49.102;-0.370;2022-11-15T04:32:19;12.23;;;1.60;;
21527;SDS011;10925;49.102;-0.370;2022-11-15T04:35:05;11.45;;;1.42;;
21527;SDS011;10925;49.102;-0.370;2022-11-15T04:37:50;5.68;;;1.75;;
21527;SDS011;10925;49.102;-0.370;2022-11-15T04:40:36;9.90;;;1.48;;
21527;SDS011;10925;49.102;-0.370;2022-11-15T04:43:03;13.45;;;1.60;;
21527;SDS011;10925;49.102;-0.370;2022-11-15T04:45:29;8.68;;;1.35;;
21527;SDS011;10925;49.102;-0.370;2022-11-15T04:48:14;12.32;;;1.35;;
21527;SDS011;10925;49.102;-0.370;2022-11-15T04:50:40;7.68;;;1.48;;
21527;SDS011;10925;49.102;-0.370;2022-11-15T04:53:25;9.13;;;1.38;;
21527;SDS011;10925;49.102;-0.370;2022-11-15T04:56:10;9.18;;;1.70;;
21527;SDS011;10925;49.102;-0.370;2022-11-15T04:58:36;6.22;;;1.23;;
21527;SDS011;10925;49.102;-0.370;2022-11-15T05:01:22;13.18;;;1.50;;
21527;SDS011;10925;49.102;-0.370;2022-11-15T05:04:07;8.30;;;1.50;;
21527;SDS011;10925;49.102;-0.370;2022-11-15T05:06:49;8.75;;;1.52;;
21527;SDS011;10925;49.102;-0.370;2022-11-15T05:09:35;10.50;;;1.20;;
21527;SDS011;10925;49.102;-0.370;2022-11-15T05:12:01;8.40;;;1.55;;
21527;SDS011;10925;49.102;-0.370;2022-11-15T05:14:50;11.55;;;2.47;;
21527;SDS011;10925;49.102;-0.370;2022-11-15T05:17:36;14.45;;;1.45;;
21527;SDS011;10925;49.102;-0.370;2022-11-15T05:20:02;9.15;;;1.33;;
21527;SDS011;10925;49.102;-0.370;2022-11-15T05:22:28;10.13;;;1.10;;
21527;SDS011;10925;49.102;-0.370;2022-11-15T05:24:54;9.68;;;1.70;;
21527;SDS011;10925;49.102;-0.370;2022-11-15T05:27:39;6.32;;;1.90;;
21527;SDS011;10925;49.102;-0.370;2022-11-15T05:30:06;12.20;;;1.40;;
21527;SDS011;10925;49.102;-0.370;2022-11-15T05:32:33;9.15;;;1.55;;
21527;SDS011;10925;49.102;-0.370;2022-11-15T05:35:36;9.38;;;2.03;;
21527;SDS011;10925;49.102;-0.370;2022-11-15T05:38:04;9.98;;;1.40;;
21527;SDS011;10925;49.102;-0.370;2022-11-15T05:40:50;6.13;;;1.27;;
21527;SDS011;10925;49.102;-0.370;2022-11-15T05:43:15;10.15;;;1.20;;
21527;SDS011;10925;49.102;-0.370;2022-11-15T05:45:41;9.10;;;1.30;;
21527;SDS011;10925;49.102;-0.370;2022-11-15T05:48:06;9.95;;;1.58;;
21527;SDS011;10925;49.102;-0.370;2022-11-15T05:50:33;17.92;;;1.65;;
21527;SDS011;10925;49.102;-0.370;2022-11-15T05:53:19;6.97;;;1.45;;
21527;SDS011;10925;49.102;-0.370;2022-11-15T05:56:05;8.85;;;1.40;;
21527;SDS011;10925;49.102;-0.370;2022-11-15T05:58:33;10.25;;;1.40;;
21527;SDS011;10925;49.102;-0.370;2022-11-15T06:01:18;11.25;;;1.52;;
21527;SDS011;10925;49.102;-0.370;2022-11-15T06:04:03;6.20;;;1.23;;
21527;SDS011;10925;49.102;-0.370;2022-11-15T06:06:48;8.27;;;1.65;;
21527;SDS011;10925;49.102;-0.370;2022-11-15T06:09:33;8.88;;;1.50;;
21527;SDS011;10925;49.102;-0.370;2022-11-15T06:12:00;10.20;;;1.20;;
21527;SDS011;10925;49.102;-0.370;2022-11-15T06:14:45;7.60;;;1.40;;
21527;SDS011;10925;49.102;-0.370;2022-11-15T06:17:12;6.57;;;1.40;;
21527;SDS011;10925;49.102;-0.370;2022-11-15T06:19:57;7.93;;;2.17;;
21527;SDS011;10925;49.102;-0.370;2022-11-15T06:22:24;9.35;;;3.10;;
21527;SDS011;10925;49.102;-0.370;2022-11-15T06:24:49;9.73;;;1.45;;
21527;SDS011;10925;49.102;-0.370;2022-11-15T06:27:14;8.10;;;1.42;;
21527;SDS011;10925;49.102;-0.370;2022-11-15T06:30:00;13.65;;;1.58;;
21527;SDS011;10925;49.102;-0.370;2022-11-15T06:32:45;5.82;;;1.15;;
21527;SDS011;10925;49.102;-0.370;2022-11-15T06:35:12;9.73;;;1.75;;
21527;SDS011;10925;49.102;-0.370;2022-11-15T06:38:01;9.32;;;1.40;;
21527;SDS011;10925;49.102;-0.370;2022-11-15T06:40:46;7.32;;;1.55;;
21527;SDS011;10925;49.102;-0.370;2022-11-15T06:43:32;8.27;;;1.48;;
21527;SDS011;10925;49.102;-0.370;2022-11-15T06:45:59;9.95;;;1.70;;
21527;SDS011;10925;49.102;-0.370;2022-11-15T06:48:26;4.78;;;1.35;;
21527;SDS011;10925;49.102;-0.370;2022-11-15T06:50:51;7.57;;;1.60;;
21527;SDS011;10925;49.102;-0.370;2022-11-15T06:53:36;15.38;;;1.27;;
21527;SDS011;10925;49.102;-0.370;2022-11-15T06:56:03;7.53;;;1.55;;
21527;SDS011;10925;49.102;-0.370;2022-11-15T07:06:05;10.70;;;1.27;;
21527;SDS011;10925;49.102;-0.370;2022-11-15T07:08:51;5.75;;;1.52;;
21527;SDS011;10925;49.102;-0.370;2022-11-15T07:11:18;6.60;;;1.48;;
21527;SDS011;10925;49.102;-0.370;2022-11-15T07:13:44;7.60;;;1.40;;
21527;SDS011;10925;49.102;-0.370;2022-11-15T07:16:29;4.93;;;1.15;;
21527;SDS011;10925;49.102;-0.370;2022-11-15T07:18:55;5.35;;;1.20;;
21527;SDS011;10925;49.102;-0.370;2022-11-15T07:21:40;6.85;;;1.50;;
21527;SDS011;10925;49.102;-0.370;2022-11-15T07:24:07;10.18;;;1.45;;
21527;SDS011;10925;49.102;-0.370;2022-11-15T07:26:32;10.82;;;1.52;;
21527;SDS011;10925;49.102;-0.370;2022-11-15T07:29:18;10.07;;;1.45;;
21527;SDS011;10925;49.102;-0.370;2022-11-15T07:32:03;5.38;;;1.27;;
21527;SDS011;10925;49.102;-0.370;2022-11-15T07:34:30;8.18;;;1.55;;
21527;SDS011;10925;49.102;-0.370;2022-11-15T07:36:56;3.90;;;1.13;;
21527;SDS011;10925;49.102;-0.370;2022-11-15T07:39:42;4.32;;;1.05;;
21527;SDS011;10925;49.102;-0.370;2022-11-15T07:42:27;4.25;;;0.93;;
21527;SDS011;10925;49.102;-0.370;2022-11-15T07:45:12;9.20;;;1.10;;
21527;SDS011;10925;49.102;-0.370;2022-11-15T07:47:57;3.58;;;0.98;;
21527;SDS011;10925;49.102;-0.370;2022-11-15T07:50:24;10.27;;;1.45;;
21527;SDS011;10925;49.102;-0.370;2022-11-15T07:52:56;9.65;;;1.20;;
21527;SDS011;10925;49.102;-0.370;2022-11-15T07:55:22;8.02;;;1.17;;
21527;SDS011;10925;49.102;-0.370;2022-11-15T07:58:08;3.53;;;1.08;;
21527;SDS011;10925;49.102;-0.370;2022-11-15T08:00:54;5.30;;;0.90;;
21527;SDS011;10925;49.102;-0.370;2022-11-15T08:03:20;3.67;;;0.85;;
21527;SDS011;10925;49.102;-0.370;2022-11-15T08:05:49;3.28;;;0.95;;
21527;SDS011;10925;49.102;-0.370;2022-11-15T08:08:35;5.55;;;1.38;;
21527;SDS011;10925;49.102;-0.370;2022-11-15T08:11:02;4.95;;;2.22;;
21527;SDS011;10925;49.102;-0.370;2022-11-15T08:13:47;5.40;;;0.85;;
21527;SDS011;10925;49.102;-0.370;2022-11-15T08:16:32;3.28;;;0.82;;
21527;SDS011;10925;49.102;-0.370;2022-11-15T08:19:18;3.42;;;0.73;;
21527;SDS011;10925;49.102;-0.370;2022-11-15T08:22:03;1.63;;;0.60;;
21527;SDS011;10925;49.102;-0.370;2022-11-15T08:24:30;2.80;;;0.80;;
21527;SDS011;10925;49.102;-0.370;2022-11-15T08:27:15;3.45;;;0.68;;
21527;SDS011;10925;49.102;-0.370;2022-11-15T08:29:42;1.98;;;0.80;;
21527;SDS011;10925;49.102;-0.370;2022-11-15T08:32:08;2.63;;;0.70;;
21527;SDS011;10925;49.102;-0.370;2022-11-15T08:34:34;2.25;;;0.80;;
21527;SDS011;10925;49.102;-0.370;2022-11-15T08:36:59;2.60;;;0.93;;
21527;SDS011;10925;49.102;-0.370;2022-11-15T08:39:25;5.70;;;1.00;;
21527;SDS011;10925;49.102;-0.370;2022-11-15T08:41:50;5.57;;;1.25;;
21527;SDS011;10925;49.102;-0.370;2022-11-15T08:44:35;2.95;;;0.90;;
21527;SDS011;10925;49.102;-0.370;2022-11-15T08:47:20;3.00;;;1.10;;
21527;SDS011;10925;49.102;-0.370;2022-11-15T08:50:06;2.90;;;1.05;;
21527;SDS011;10925;49.102;-0.370;2022-11-15T08:52:51;4.50;;;1.27;;
21527;SDS011;10925;49.102;-0.370;2022-11-15T08:55:17;4.80;;;1.08;;
21527;SDS011;10925;49.102;-0.370;2022-11-15T08:58:08;5.57;;;1.35;;
21527;SDS011;10925;49.102;-0.370;2022-11-15T09:00:34;7.07;;;1.30;;
21527;SDS011;10925;49.102;-0.370;2022-11-15T09:03:01;2.72;;;1.20;;
21527;SDS011;10925;49.102;-0.370;2022-11-15T09:05:48;3.85;;;1.42;;
21527;SDS011;10925;49.102;-0.370;2022-11-15T09:08:15;1.95;;;1.05;;
21527;SDS011;10925;49.102;-0.370;2022-11-15T09:11:20;1.92;;;1.00;;
21527;SDS011;10925;49.102;-0.370;2022-11-15T09:14:06;4.45;;;1.17;;
21527;SDS011;10925;49.102;-0.370;2022-11-15T09:16:52;4.65;;;1.20;;
21527;SDS011;10925;49.102;-0.370;2022-11-15T09:19:37;3.72;;;1.15;;
21527;SDS011;10925;49.102;-0.370;2022-11-15T09:22:07;2.83;;;1.10;;
21527;SDS011;10925;49.102;-0.370;2022-11-15T09:24:53;3.35;;;1.00;;
21527;SDS011;10925;49.102;-0.370;2022-11-15T09:27:38;2.05;;;1.00;;
21527;SDS011;10925;49.102;-0.370;2022-11-15T09:30:24;5.60;;;0.95;;
21527;SDS011;10925;49.102;-0.370;2022-11-15T09:32:51;1.63;;;0.95;;
21527;SDS011;10925;49.102;-0.370;2022-11-15T09:35:16;3.15;;;1.15;;
21527;SDS011;10925;49.102;-0.370;2022-11-15T09:38:02;2.17;;;1.20;;
21527;SDS011;10925;49.102;-0.370;2022-11-15T09:40:30;2.53;;;1.00;;
21527;SDS011;10925;49.102;-0.370;2022-11-15T09:43:18;4.13;;;1.13;;
21527;SDS011;10925;49.102;-0.370;2022-11-15T09:45:55;2.47;;;0.80;;
21527;SDS011;10925;49.102;-0.370;2022-11-15T09:48:57;5.95;;;0.90;;
21527;SDS011;10925;49.102;-0.370;2022-11-15T09:51:39;2.83;;;0.90;;
21527;SDS011;10925;49.102;-0.370;2022-11-15T09:54:33;3.92;;;0.80;;
21527;SDS011;10925;49.102;-0.370;2022-11-15T10:02:39;2.03;;;0.75;;
21527;SDS011;10925;49.102;-0.370;2022-11-15T10:05:10;4.32;;;0.80;;
21527;SDS011;10925;49.102;-0.370;2022-11-15T10:07:42;2.95;;;0.93;;
21527;SDS011;10925;49.102;-0.370;2022-11-15T10:10:27;1.85;;;0.70;;
21527;SDS011;10925;49.102;-0.370;2022-11-15T10:12:56;2.17;;;0.80;;
21527;SDS011;10925;49.102;-0.370;2022-11-15T10:15:24;2.20;;;0.70;;
21527;SDS011;10925;49.102;-0.370;2022-11-15T10:20:28;1.50;;;0.80;;
21527;SDS011;10925;49.102;-0.370;2022-11-15T10:25:27;5.80;;;1.00;;
21527;SDS011;10925;49.102;-0.370;2022-11-15T10:27:55;4.03;;;1.08;;
21527;SDS011;10925;49.102;-0.370;2022-11-15T10:30:22;2.13;;;0.85;;
21527;SDS011;10925;49.102;-0.370;2022-11-15T10:32:49;1.83;;;0.90;;
21527;SDS011;10925;49.102;-0.370;2022-11-15T10:35:24;2.45;;;1.00;;
21527;SDS011;10925;49.102;-0.370;2022-11-15T10:37:51;1.00;;;0.80;;
21527;SDS011;10925;49.102;-0.370;2022-11-15T10:40:22;0.93;;;0.77;;
21527;SDS011;10925;49.102;-0.370;2022-11-15T10:43:35;2.75;;;0.88;;
21527;SDS011;10925;49.102;-0.370;2022-11-15T10:45:36;2.13;;;1.25;;
21527;SDS011;10925;49.102;-0.370;2022-11-15T10:50:45;2.95;;;0.98;;
21527;SDS011;10925;49.102;-0.370;2022-11-15T10:53:15;3.95;;;1.30;;
21527;SDS011;10925;49.102;-0.370;2022-11-15T10:55:42;2.53;;;1.05;;
21527;SDS011;10925;49.102;-0.370;2022-11-15T10:58:50;4.53;;;1.15;;
21527;SDS011;10925;49.102;-0.370;2022-11-15T11:06:25;1.48;;;1.00;;
21527;SDS011;10925;49.102;-0.370;2022-11-15T11:08:56;2.85;;;1.42;;
21527;SDS011;10925;49.102;-0.370;2022-11-15T11:11:23;7.03;;;1.20;;
21527;SDS011;10925;49.102;-0.370;2022-11-15T11:13:48;6.25;;;1.40;;
21527;SDS011;10925;49.102;-0.370;2022-11-15T11:16:17;3.08;;;1.30;;
21527;SDS011;10925;49.102;-0.370;2022-11-15T11:24:16;3.28;;;1.27;;
21527;SDS011;10925;49.102;-0.370;2022-11-15T11:32:09;6.60;;;1.50;;
21527;SDS011;10925;49.102;-0.370;2022-11-15T11:37:12;4.60;;;1.30;;
21527;SDS011;10925;49.102;-0.370;2022-11-15T11:42:23;3.45;;;1.15;;
21527;SDS011;10925;49.102;-0.370;2022-11-15T11:47:32;2.33;;;1.13;;
21527;SDS011;10925;49.102;-0.370;2022-11-15T11:50:12;1.63;;;1.00;;
21527;SDS011;10925;49.102;-0.370;2022-11-15T11:55:16;2.13;;;1.00;;
21527;SDS011;10925;49.102;-0.370;2022-11-15T11:57:46;1.83;;;1.05;;
21527;SDS011;10925;49.102;-0.370;2022-11-15T12:00:24;3.00;;;1.10;;
21527;SDS011;10925;49.102;-0.370;2022-11-15T12:10:50;3.70;;;1.20;;
21527;SDS011;10925;49.102;-0.370;2022-11-15T12:13:19;5.20;;;1.30;;
21527;SDS011;10925;49.102;-0.370;2022-11-15T12:15:58;3.50;;;1.33;;
21527;SDS011;10925;49.102;-0.370;2022-11-15T12:18:24;1.95;;;1.17;;
21527;SDS011;10925;49.102;-0.370;2022-11-15T12:20:55;3.13;;;1.20;;
21527;SDS011;10925;49.102;-0.370;2022-11-15T12:23:27;2.15;;;0.95;;
21527;SDS011;10925;49.102;-0.370;2022-11-15T12:25:58;2.45;;;0.82;;
21527;SDS011;10925;49.102;-0.370;2022-11-15T12:30:56;3.20;;;1.10;;
21527;SDS011;10925;49.102;-0.370;2022-11-15T12:35:58;1.80;;;0.85;;
21527;SDS011;10925;49.102;-0.370;2022-11-15T12:41:12;1.83;;;1.10;;
21527;SDS011;10925;49.102;-0.370;2022-11-15T12:43:39;2.15;;;1.13;;
21527;SDS011;10925;49.102;-0.370;2022-11-15T12:46:10;1.67;;;1.08;;
21527;SDS011;10925;49.102;-0.370;2022-11-15T12:51:04;2.65;;;1.13;;
21527;SDS011;10925;49.102;-0.370;2022-11-15T12:53:31;2.58;;;1.30;;
21527;SDS011;10925;49.102;-0.370;2022-11-15T12:58:43;5.53;;;1.20;;
21527;SDS011;10925;49.102;-0.370;2022-11-15T13:01:09;1.58;;;1.10;;
21527;SDS011;10925;49.102;-0.370;2022-11-15T13:03:43;3.13;;;1.40;;
21527;SDS011;10925;49.102;-0.370;2022-11-15T13:06:42;4.38;;;1.33;;
21527;SDS011;10925;49.102;-0.370;2022-11-15T13:11:54;4.10;;;1.33;;
21527;SDS011;10925;49.102;-0.370;2022-11-15T13:19:44;2.42;;;1.30;;
21527;SDS011;10925;49.102;-0.370;2022-11-15T13:22:12;7.07;;;3.80;;
21527;SDS011;10925;49.102;-0.370;2022-11-15T13:24:57;4.05;;;2.05;;
21527;SDS011;10925;49.102;-0.370;2022-11-15T13:27:23;6.10;;;1.70;;
21527;SDS011;10925;49.102;-0.370;2022-11-15T13:30:00;2.35;;;1.20;;
21527;SDS011;10925;49.102;-0.370;2022-11-15T13:32:25;2.88;;;1.08;;
21527;SDS011;10925;49.102;-0.370;2022-11-15T13:34:51;2.05;;;0.98;;
21527;SDS011;10925;49.102;-0.370;2022-11-15T13:39:46;3.88;;;1.70;;
21527;SDS011;10925;49.102;-0.370;2022-11-15T13:42:17;2.55;;;1.42;;
21527;SDS011;10925;49.102;-0.370;2022-11-15T13:44:55;2.90;;;1.08;;
21527;SDS011;10925;49.102;-0.370;2022-11-15T13:47:24;5.90;;;1.30;;
21527;SDS011;10925;49.102;-0.370;2022-11-15T13:49:53;2.72;;;1.83;;
21527;SDS011;10925;49.102;-0.370;2022-11-15T13:52:19;1.90;;;1.10;;
21527;SDS011;10925;49.102;-0.370;2022-11-15T13:57:14;6.88;;;1.42;;
21527;SDS011;10925;49.102;-0.370;2022-11-15T14:02:12;4.35;;;1.35;;
21527;SDS011;10925;49.102;-0.370;2022-11-15T14:04:39;6.65;;;1.30;;
21527;SDS011;10925;49.102;-0.370;2022-11-15T14:07:14;8.63;;;2.25;;
21527;SDS011;10925;49.102;-0.370;2022-11-15T14:09:40;6.55;;;1.52;;
21527;SDS011;10925;49.102;-0.370;2022-11-15T14:14:52;6.65;;;1.60;;
21527;SDS011;10925;49.102;-0.370;2022-11-15T14:17:21;9.77;;;1.80;;
21527;SDS011;10925;49.102;-0.370;2022-11-15T14:19:49;6.70;;;1.50;;
21527;SDS011;10925;49.102;-0.370;2022-11-15T14:22:18;9.23;;;1.65;;
21527;SDS011;10925;49.102;-0.370;2022-11-15T14:27:33;5.47;;;1.65;;
21527;SDS011;10925;49.102;-0.370;2022-11-15T14:29:59;12.75;;;1.90;;
21527;SDS011;10925;49.102;-0.370;2022-11-15T14:32:28;9.90;;;1.67;;
21527;SDS011;10925;49.102;-0.370;2022-11-15T14:34:58;7.00;;;2.15;;
21527;SDS011;10925;49.102;-0.370;2022-11-15T14:37:25;5.25;;;1.40;;
21527;SDS011;10925;49.102;-0.370;2022-11-15T14:39:50;5.70;;;1.52;;
21527;SDS011;10925;49.102;-0.370;2022-11-15T14:42:18;5.28;;;1.40;;
21527;SDS011;10925;49.102;-0.370;2022-11-15T14:44:43;8.02;;;1.83;;
21527;SDS011;10925;49.102;-0.370;2022-11-15T14:47:09;2.72;;;1.10;;
21527;SDS011;10925;49.102;-0.370;2022-11-15T14:49:35;9.43;;;1.90;;
21527;SDS011;10925;49.102;-0.370;2022-11-15T14:52:04;6.03;;;1.40;;
21527;SDS011;10925;49.102;-0.370;2022-11-15T14:54:31;6.50;;;1.60;;
21527;SDS011;10925;49.102;-0.370;2022-11-15T15:00:01;7.45;;;1.80;;
21527;SDS011;10925;49.102;-0.370;2022-11-15T15:02:38;6.97;;;1.80;;
21527;SDS011;10925;49.102;-0.370;2022-11-15T15:07:41;6.00;;;1.95;;
21527;SDS011;10925;49.102;-0.370;2022-11-15T15:10:08;10.85;;;2.08;;
21527;SDS011;10925;49.102;-0.370;2022-11-15T15:12:55;7.75;;;2.13;;
21527;SDS011;10925;49.102;-0.370;2022-11-15T15:15:24;7.38;;;1.85;;
21527;SDS011;10925;49.102;-0.370;2022-11-15T15:17:51;8.20;;;1.50;;
21527;SDS011;10925;49.102;-0.370;2022-11-15T15:20:18;7.35;;;1.55;;
21527;SDS011;10925;49.102;-0.370;2022-11-15T15:22:44;8.02;;;1.70;;
21527;SDS011;10925;49.102;-0.370;2022-11-15T15:25:54;3.78;;;1.67;;
21527;SDS011;10925;49.102;-0.370;2022-11-15T15:28:01;8.82;;;2.00;;
21527;SDS011;10925;49.102;-0.370;2022-11-15T15:30:29;8.60;;;2.35;;
21527;SDS011;10925;49.102;-0.370;2022-11-15T15:32:56;5.50;;;2.00;;
21527;SDS011;10925;49.102;-0.370;2022-11-15T15:35:22;7.30;;;2.15;;
21527;SDS011;10925;49.102;-0.370;2022-11-15T15:37:49;7.88;;;2.85;;
21527;SDS011;10925;49.102;-0.370;2022-11-15T15:40:16;7.53;;;1.83;;
21527;SDS011;10925;49.102;-0.370;2022-11-15T15:42:43;5.85;;;1.75;;
21527;SDS011;10925;49.102;-0.370;2022-11-15T15:45:09;6.53;;;1.90;;
21527;SDS011;10925;49.102;-0.370;2022-11-15T15:47:36;4.68;;;1.58;;
21527;SDS011;10925;49.102;-0.370;2022-11-15T15:50:49;9.77;;;2.15;;
21527;SDS011;10925;49.102;-0.370;2022-11-15T15:52:51;14.43;;;4.45;;
21527;SDS011;10925;49.102;-0.370;2022-11-15T15:55:18;14.27;;;4.63;;
21527;SDS011;10925;49.102;-0.370;2022-11-15T15:57:45;18.90;;;4.82;;
21527;SDS011;10925;49.102;-0.370;2022-11-15T16:00:13;6.07;;;1.55;;
21527;SDS011;10925;49.102;-0.370;2022-11-15T16:02:40;4.60;;;1.30;;
21527;SDS011;10925;49.102;-0.370;2022-11-15T16:05:07;6.78;;;1.20;;
21527;SDS011;10925;49.102;-0.370;2022-11-15T16:07:34;3.42;;;1.20;;
21527;SDS011;10925;49.102;-0.370;2022-11-15T16:10:02;4.40;;;1.45;;
21527;SDS011;10925;49.102;-0.370;2022-11-15T16:14:54;7.20;;;1.67;;
21527;SDS011;10925;49.102;-0.370;2022-11-15T16:17:22;7.95;;;1.52;;
21527;SDS011;10925;49.102;-0.370;2022-11-15T16:19:49;5.18;;;1.58;;
21527;SDS011;10925;49.102;-0.370;2022-11-15T16:22:16;8.10;;;1.75;;
21527;SDS011;10925;49.102;-0.370;2022-11-15T16:24:43;6.10;;;1.83;;
21527;SDS011;10925;49.102;-0.370;2022-11-15T16:27:19;7.07;;;1.95;;
21527;SDS011;10925;49.102;-0.370;2022-11-15T16:29:45;13.80;;;7.95;;
21527;SDS011;10925;49.102;-0.370;2022-11-15T16:32:11;35.53;;;15.32;;
21527;SDS011;10925;49.102;-0.370;2022-11-15T16:34:38;43.33;;;22.20;;
21527;SDS011;10925;49.102;-0.370;2022-11-15T16:37:34;13.88;;;6.43;;
21527;SDS011;10925;49.102;-0.370;2022-11-15T16:39:57;12.50;;;6.10;;
21527;SDS011;10925;49.102;-0.370;2022-11-15T16:42:22;9.82;;;3.83;;
21527;SDS011;10925;49.102;-0.370;2022-11-15T16:44:49;9.05;;;3.70;;
21527;SDS011;10925;49.102;-0.370;2022-11-15T16:47:18;6.15;;;2.70;;
21527;SDS011;10925;49.102;-0.370;2022-11-15T16:49:44;7.18;;;2.80;;
21527;SDS011;10925;49.102;-0.370;2022-11-15T16:52:10;11.25;;;2.92;;
21527;SDS011;10925;49.102;-0.370;2022-11-15T16:54:36;7.72;;;3.50;;
21527;SDS011;10925;49.102;-0.370;2022-11-15T16:57:02;12.00;;;5.43;;
21527;SDS011;10925;49.102;-0.370;2022-11-15T16:59:29;14.07;;;6.32;;
21527;SDS011;10925;49.102;-0.370;2022-11-15T17:02:03;17.73;;;5.25;;
21527;SDS011;10925;49.102;-0.370;2022-11-15T17:04:30;10.20;;;4.53;;
21527;SDS011;10925;49.102;-0.370;2022-11-15T17:06:59;9.25;;;4.30;;
21527;SDS011;10925;49.102;-0.370;2022-11-15T17:09:25;14.82;;;4.03;;
21527;SDS011;10925;49.102;-0.370;2022-11-15T17:11:51;12.85;;;3.50;;
21527;SDS011;10925;49.102;-0.370;2022-11-15T17:14:18;6.00;;;3.05;;
21527;SDS011;10925;49.102;-0.370;2022-11-15T17:16:45;9.88;;;3.55;;
21527;SDS011;10925;49.102;-0.370;2022-11-15T17:21:39;7.88;;;2.78;;
21527;SDS011;10925;49.102;-0.370;2022-11-15T17:24:06;7.65;;;3.00;;
21527;SDS011;10925;49.102;-0.370;2022-11-15T17:26:32;9.50;;;3.55;;
21527;SDS011;10925;49.102;-0.370;2022-11-15T17:29:05;11.13;;;5.10;;